George S. — A8TJ9 — position and weather

sailwx.info

Track history (hours):
 
Tides and Currents Weather Stations Pressure Air Temp Water Temp Dewpoint Dewpoint Depression Visibility Wind Speed Wind Dir Waves Ship Positions

George S.

Last reported at 2016-May-05 21:32 UTC. Time now 2016-May-06 14:56 UTC.
Position N 37°45' E 008°10'.

Length 274 m; draft 15.6 m.

Type: Tanker. MMSI: 636014372.

Date/timePositionNaut miles runAvg speedWind from/ knotsBaromVisibWave heightAir tempDewpointWater temp
2016-May-05 21:32N 37°45' E 008°10'1211.9
2016-May-05 20:34N 37°46' E 008°24'2512.0
2016-May-05 18:27N 37°44' E 008°56'1112.6
2016-May-05 17:33N 37°43' E 009°11'1212.3
2016-May-05 16:33N 37°42' E 009°26'1212.2
2016-May-05 15:33N 37°41' E 009°42'1212.3
2016-May-05 14:32N 37°40' E 009°57'1212.1
2016-May-05 13:31N 37°39' E 010°13'15011.4
2016-May-05 00:23N 36°46' E 013°09'1011.4
2016-May-04 23:31N 36°43' E 013°21'1111.5
2016-May-04 22:33N 36°40' E 013°34'1111.3
2016-May-04 21:34N 36°36' E 013°47'1111.2
2016-May-04 20:34N 36°33' E 014°00'1111.0
2016-May-04 19:33N 36°29' E 014°13'1111.0
2016-May-04 18:33N 36°26' E 014°26'1111.3
2016-May-04 17:33N 36°24' E 014°40'45510.5
2016-May-02 22:06N 37°13' E 024°05'611.2
2016-May-02 21:31N 37°19' E 024°10'1111.1
2016-May-02 20:33N 37°27' E 024°18'1111.4
2016-May-02 19:33N 37°37' E 024°26'1211.9
2016-May-02 18:34N 37°48' E 024°31'1211.9
2016-May-02 17:33N 37°59' E 024°36'252 9.7
2016-May-01 15:31N 40°46' E 028°40'1111.5
2016-May-01 14:32N 40°53' E 028°51'8 7.8
2016-May-01 13:30N 40°59' E 028°59'424 8.3
2016-Apr-29 10:32N 44°25' E 037°23'1211.7
2016-Apr-29 09:33N 44°31' E 037°37'7 7.1
2016-Apr-29 08:34N 44°36' E 037°44'0 0.4
2016-Apr-29 07:33N 44°36' E 037°43'2 2.4
2016-Apr-29 06:33N 44°34' E 037°44'0 0.2
2016-Apr-29 05:33N 44°34' E 037°44'0 0.3
2016-Apr-29 04:33N 44°34' E 037°44'0 0.3
2016-Apr-29 03:33N 44°34' E 037°43'0 0.4
2016-Apr-29 02:33N 44°35' E 037°43'0 0.4
2016-Apr-29 01:33N 44°35' E 037°42'3 2.7
2016-Apr-29 00:33N 44°37' E 037°40'0 0.2
2016-Apr-28 23:14N 44°37' E 037°40'0 0.0
2016-Apr-28 16:32N 44°37' E 037°40'0 0.0
2016-Apr-28 15:32N 44°37' E 037°40'0 0.0
2016-Apr-28 14:17N 44°37' E 037°40'0 0.0
2016-Apr-28 12:32N 44°37' E 037°40'0 0.0
2016-Apr-28 11:17N 44°37' E 037°40'0 0.1
2016-Apr-28 10:29N 44°37' E 037°40'0 0.1
2016-Apr-28 09:23N 44°37' E 037°40'0 0.0
2016-Apr-28 08:20N 44°37' E 037°40'0 0.0
2016-Apr-28 07:29N 44°37' E 037°40'0 0.1
2016-Apr-28 06:26N 44°37' E 037°40'1 1.1
2016-Apr-28 05:33N 44°37' E 037°41'2 1.5
2016-Apr-28 04:33N 44°36' E 037°40'4 4.4
2016-Apr-28 03:33N 44°32' E 037°38'2 1.7
2016-Apr-28 02:33N 44°31' E 037°36'1 1.4
2016-Apr-28 01:33N 44°33' E 037°36'1 1.0
2016-Apr-28 00:33N 44°34' E 037°36'2 1.8
2016-Apr-27 23:33N 44°32' E 037°37'4 4.3
2016-Apr-27 22:33N 44°30' E 037°42'2 2.0
2016-Apr-27 21:33N 44°31' E 037°40'3 2.6
2016-Apr-27 20:33N 44°33' E 037°41'4 4.5
2016-Apr-27 19:33N 44°35' E 037°46'5 5.3
2016-Apr-27 18:32N 44°36' E 037°54'0 0.1
2016-Apr-27 17:32N 44°36' E 037°54'0 0.1
2016-Apr-27 16:32N 44°36' E 037°54'0 0.1
2016-Apr-27 15:32N 44°36' E 037°54'0 0.0
2016-Apr-27 14:32N 44°36' E 037°54'0 0.0
2016-Apr-27 13:32N 44°36' E 037°54'0 0.1
2016-Apr-27 12:32N 44°36' E 037°54'0 0.1
2016-Apr-27 11:32N 44°36' E 037°54'0 0.0
2016-Apr-27 10:32N 44°36' E 037°54'0 0.1
2016-Apr-27 09:32N 44°36' E 037°54'0 0.0
2016-Apr-27 08:32N 44°36' E 037°54'0 0.1
2016-Apr-27 07:32N 44°36' E 037°54'0 0.0
2016-Apr-27 06:32N 44°36' E 037°54'0 0.0
2016-Apr-27 05:32N 44°36' E 037°54'0 0.0
2016-Apr-27 04:32N 44°36' E 037°54'0 0.0
2016-Apr-27 03:32N 44°36' E 037°54'0 0.0
2016-Apr-27 02:32N 44°36' E 037°54'0 0.0
2016-Apr-27 01:32N 44°36' E 037°54'0 0.1
2016-Apr-27 00:23N 44°36' E 037°53'0 0.0
2016-Apr-26 23:32N 44°36' E 037°53'0 0.0
2016-Apr-26 22:32N 44°36' E 037°53'0 0.0
2016-Apr-26 21:32N 44°36' E 037°53'0 0.0
2016-Apr-26 20:32N 44°36' E 037°53'0 0.1
2016-Apr-26 19:32N 44°36' E 037°53'0 0.0
2016-Apr-26 18:32N 44°36' E 037°53'0 0.0
2016-Apr-26 17:32N 44°36' E 037°53'0 0.0
2016-Apr-26 16:32N 44°36' E 037°53'0 0.0
2016-Apr-26 15:32N 44°36' E 037°53'0 0.0
2016-Apr-26 14:32N 44°36' E 037°53'0 0.0
2016-Apr-26 13:32N 44°36' E 037°53'0 0.0
2016-Apr-26 12:32N 44°36' E 037°53'0 0.0
2016-Apr-26 11:32N 44°36' E 037°53'0 0.0
2016-Apr-26 10:32N 44°36' E 037°53'2 1.9
2016-Apr-26 09:33N 44°35' E 037°51'6 6.4
2016-Apr-26 08:33N 44°36' E 037°42'0 0.4
2016-Apr-26 07:33N 44°36' E 037°43'2 2.5
2016-Apr-26 06:33N 44°34' E 037°41'1 0.6
2016-Apr-26 05:33N 44°34' E 037°42'1 0.6
2016-Apr-26 04:33N 44°35' E 037°42'1 1.0
2016-Apr-26 03:33N 44°35' E 037°43'4 3.6
2016-Apr-26 02:33N 44°33' E 037°40'9 8.8
2016-Apr-26 01:30N 44°24' E 037°35'1 1.1
2016-Apr-26 00:33N 44°23' E 037°35'1 1.3
2016-Apr-25 23:29N 44°22' E 037°36'8 4.3
2016-Apr-25 21:33N 44°27' E 037°45'  
Track history (hours):
 
Tides and Currents Weather Stations Pressure Air Temp Water Temp Dewpoint Dewpoint Depression Visibility Wind Speed Wind Dir Waves Ship Positions

George S.

Last reported at 2016-May-05 21:32 UTC. Time now 2016-May-06 14:56 UTC.
Position N 37°45' E 008°10'.

Length 274 m; draft 15.6 m.

Type: Tanker. MMSI: 636014372.

Date/timePositionNaut miles runAvg speedWind from/ knotsBaromVisibWave heightAir tempDewpointWater temp
2016-May-05 21:32N 37°45' E 008°10'1211.9
2016-May-05 20:34N 37°46' E 008°24'2512.0
2016-May-05 18:27N 37°44' E 008°56'1112.6
2016-May-05 17:33N 37°43' E 009°11'1212.3
2016-May-05 16:33N 37°42' E 009°26'1212.2
2016-May-05 15:33N 37°41' E 009°42'1212.3
2016-May-05 14:32N 37°40' E 009°57'1212.1
2016-May-05 13:31N 37°39' E 010°13'15011.4
2016-May-05 00:23N 36°46' E 013°09'1011.4
2016-May-04 23:31N 36°43' E 013°21'1111.5
2016-May-04 22:33N 36°40' E 013°34'1111.3
2016-May-04 21:34N 36°36' E 013°47'1111.2
2016-May-04 20:34N 36°33' E 014°00'1111.0
2016-May-04 19:33N 36°29' E 014°13'1111.0
2016-May-04 18:33N 36°26' E 014°26'1111.3
2016-May-04 17:33N 36°24' E 014°40'45510.5
2016-May-02 22:06N 37°13' E 024°05'611.2
2016-May-02 21:31N 37°19' E 024°10'1111.1
2016-May-02 20:33N 37°27' E 024°18'1111.4
2016-May-02 19:33N 37°37' E 024°26'1211.9
2016-May-02 18:34N 37°48' E 024°31'1211.9
2016-May-02 17:33N 37°59' E 024°36'252 9.7
2016-May-01 15:31N 40°46' E 028°40'1111.5
2016-May-01 14:32N 40°53' E 028°51'8 7.8
2016-May-01 13:30N 40°59' E 028°59'424 8.3
2016-Apr-29 10:32N 44°25' E 037°23'1211.7
2016-Apr-29 09:33N 44°31' E 037°37'7 7.1
2016-Apr-29 08:34N 44°36' E 037°44'0 0.4
2016-Apr-29 07:33N 44°36' E 037°43'2 2.4
2016-Apr-29 06:33N 44°34' E 037°44'0 0.2
2016-Apr-29 05:33N 44°34' E 037°44'0 0.3
2016-Apr-29 04:33N 44°34' E 037°44'0 0.3
2016-Apr-29 03:33N 44°34' E 037°43'0 0.4
2016-Apr-29 02:33N 44°35' E 037°43'0 0.4
2016-Apr-29 01:33N 44°35' E 037°42'3 2.7
2016-Apr-29 00:33N 44°37' E 037°40'0 0.2
2016-Apr-28 23:14N 44°37' E 037°40'0 0.0
2016-Apr-28 16:32N 44°37' E 037°40'0 0.0
2016-Apr-28 15:32N 44°37' E 037°40'0 0.0
2016-Apr-28 14:17N 44°37' E 037°40'0 0.0
2016-Apr-28 12:32N 44°37' E 037°40'0 0.0
2016-Apr-28 11:17N 44°37' E 037°40'0 0.1
2016-Apr-28 10:29N 44°37' E 037°40'0 0.1
2016-Apr-28 09:23N 44°37' E 037°40'0 0.0
2016-Apr-28 08:20N 44°37' E 037°40'0 0.0
2016-Apr-28 07:29N 44°37' E 037°40'0 0.1
2016-Apr-28 06:26N 44°37' E 037°40'1 1.1
2016-Apr-28 05:33N 44°37' E 037°41'2 1.5
2016-Apr-28 04:33N 44°36' E 037°40'4 4.4
2016-Apr-28 03:33N 44°32' E 037°38'2 1.7
2016-Apr-28 02:33N 44°31' E 037°36'1 1.4
2016-Apr-28 01:33N 44°33' E 037°36'1 1.0
2016-Apr-28 00:33N 44°34' E 037°36'2 1.8
2016-Apr-27 23:33N 44°32' E 037°37'4 4.3
2016-Apr-27 22:33N 44°30' E 037°42'2 2.0
2016-Apr-27 21:33N 44°31' E 037°40'3 2.6
2016-Apr-27 20:33N 44°33' E 037°41'4 4.5
2016-Apr-27 19:33N 44°35' E 037°46'5 5.3
2016-Apr-27 18:32N 44°36' E 037°54'0 0.1
2016-Apr-27 17:32N 44°36' E 037°54'0 0.1
2016-Apr-27 16:32N 44°36' E 037°54'0 0.1
2016-Apr-27 15:32N 44°36' E 037°54'0 0.0
2016-Apr-27 14:32N 44°36' E 037°54'0 0.0
2016-Apr-27 13:32N 44°36' E 037°54'0 0.1
2016-Apr-27 12:32N 44°36' E 037°54'0 0.1
2016-Apr-27 11:32N 44°36' E 037°54'0 0.0
2016-Apr-27 10:32N 44°36' E 037°54'0 0.1
2016-Apr-27 09:32N 44°36' E 037°54'0 0.0
2016-Apr-27 08:32N 44°36' E 037°54'0 0.1
2016-Apr-27 07:32N 44°36' E 037°54'0 0.0
2016-Apr-27 06:32N 44°36' E 037°54'0 0.0
2016-Apr-27 05:32N 44°36' E 037°54'0 0.0
2016-Apr-27 04:32N 44°36' E 037°54'0 0.0
2016-Apr-27 03:32N 44°36' E 037°54'0 0.0
2016-Apr-27 02:32N 44°36' E 037°54'0 0.0
2016-Apr-27 01:32N 44°36' E 037°54'0 0.1
2016-Apr-27 00:23N 44°36' E 037°53'0 0.0
2016-Apr-26 23:32N 44°36' E 037°53'0 0.0
2016-Apr-26 22:32N 44°36' E 037°53'0 0.0
2016-Apr-26 21:32N 44°36' E 037°53'0 0.0
2016-Apr-26 20:32N 44°36' E 037°53'0 0.1
2016-Apr-26 19:32N 44°36' E 037°53'0 0.0
2016-Apr-26 18:32N 44°36' E 037°53'0 0.0
2016-Apr-26 17:32N 44°36' E 037°53'0 0.0
2016-Apr-26 16:32N 44°36' E 037°53'0 0.0
2016-Apr-26 15:32N 44°36' E 037°53'0 0.0
2016-Apr-26 14:32N 44°36' E 037°53'0 0.0
2016-Apr-26 13:32N 44°36' E 037°53'0 0.0
2016-Apr-26 12:32N 44°36' E 037°53'0 0.0
2016-Apr-26 11:32N 44°36' E 037°53'0 0.0
2016-Apr-26 10:32N 44°36' E 037°53'2 1.9
2016-Apr-26 09:33N 44°35' E 037°51'6 6.4
2016-Apr-26 08:33N 44°36' E 037°42'0 0.4
2016-Apr-26 07:33N 44°36' E 037°43'2 2.5
2016-Apr-26 06:33N 44°34' E 037°41'1 0.6
2016-Apr-26 05:33N 44°34' E 037°42'1 0.6
2016-Apr-26 04:33N 44°35' E 037°42'1 1.0
2016-Apr-26 03:33N 44°35' E 037°43'4 3.6
2016-Apr-26 02:33N 44°33' E 037°40'9 8.8
2016-Apr-26 01:30N 44°24' E 037°35'1 1.1
2016-Apr-26 00:33N 44°23' E 037°35'1 1.3
2016-Apr-25 23:29N 44°22' E 037°36'8 4.3
2016-Apr-25 21:33N 44°27' E 037°45'  

Dump ship's entire track history